sensor_id;sensor_type;location;lat;lon;timestamp;P1;P2;P0
24012;PMS7003;12220;50.194;18.948;2023-05-10T00:01:11;8;8;7
24012;PMS7003;12220;50.194;18.948;2023-05-10T00:03:21;11;10;8
24012;PMS7003;12220;50.194;18.948;2023-05-10T00:05:23;10;9;8
24012;PMS7003;12220;50.194;18.948;2023-05-10T00:07:24;10;10;7
24012;PMS7003;12220;50.194;18.948;2023-05-10T00:09:25;10;10;8
24012;PMS7003;12220;50.194;18.948;2023-05-10T00:11:36;11;10;8
24012;PMS7003;12220;50.194;18.948;2023-05-10T00:13:37;8;8;6
24012;PMS7003;12220;50.194;18.948;2023-05-10T00:15:38;9;8;6
24012;PMS7003;12220;50.194;18.948;2023-05-10T00:17:40;9;8;7
24012;PMS7003;12220;50.194;18.948;2023-05-10T00:19:51;11;11;9
24012;PMS7003;12220;50.194;18.948;2023-05-10T00:21:52;11;10;7
24012;PMS7003;12220;50.194;18.948;2023-05-10T00:23:54;16;10;8
24012;PMS7003;12220;50.194;18.948;2023-05-10T00:25:55;16;16;8
24012;PMS7003;12220;50.194;18.948;2023-05-10T00:28:06;8;7;5
24012;PMS7003;12220;50.194;18.948;2023-05-10T00:30:08;9;8;7
24012;PMS7003;12220;50.194;18.948;2023-05-10T00:32:09;9;9;7
24012;PMS7003;12220;50.194;18.948;2023-05-10T00:34:11;10;10;9
24012;PMS7003;12220;50.194;18.948;2023-05-10T00:36:21;10;10;8
24012;PMS7003;12220;50.194;18.948;2023-05-10T00:38:23;7;5;4
24012;PMS7003;12220;50.194;18.948;2023-05-10T00:40:24;18;9;8
24012;PMS7003;12220;50.194;18.948;2023-05-10T00:42:26;10;10;8
24012;PMS7003;12220;50.194;18.948;2023-05-10T00:44:36;12;10;8
24012;PMS7003;12220;50.194;18.948;2023-05-10T00:46:38;12;7;6
24012;PMS7003;12220;50.194;18.948;2023-05-10T00:48:39;9;9;6
24012;PMS7003;12220;50.194;18.948;2023-05-10T00:50:40;3;2;2
24012;PMS7003;12220;50.194;18.948;2023-05-10T00:52:51;6;6;6
24012;PMS7003;12220;50.194;18.948;2023-05-10T00:54:53;8;6;6
24012;PMS7003;12220;50.194;18.948;2023-05-10T00:56:57;7;4;3
24012;PMS7003;12220;50.194;18.948;2023-05-10T00:58:59;12;10;9
24012;PMS7003;12220;50.194;18.948;2023-05-10T01:01:06;8;8;7
24012;PMS7003;12220;50.194;18.948;2023-05-10T01:03:10;8;8;7
24012;PMS7003;12220;50.194;18.948;2023-05-10T01:05:12;11;10;8
24012;PMS7003;12220;50.194;18.948;2023-05-10T01:07:14;7;7;4
24012;PMS7003;12220;50.194;18.948;2023-05-10T01:09:21;9;8;5
24012;PMS7003;12220;50.194;18.948;2023-05-10T01:11:23;6;6;5
24012;PMS7003;12220;50.194;18.948;2023-05-10T01:15:38;10;10;8
24012;PMS7003;12220;50.194;18.948;2023-05-10T01:17:41;8;8;7
24012;PMS7003;12220;50.194;18.948;2023-05-10T01:19:45;7;7;6
24012;PMS7003;12220;50.194;18.948;2023-05-10T01:33:01;17;13;10
24012;PMS7003;12220;50.194;18.948;2023-05-10T01:40:03;18;11;9
24012;PMS7003;12220;50.194;18.948;2023-05-10T01:42:26;9;9;8
24012;PMS7003;12220;50.194;18.948;2023-05-10T01:47:06;8;7;6
24012;PMS7003;12220;50.194;18.948;2023-05-10T01:51:26;9;9;6
24012;PMS7003;12220;50.194;18.948;2023-05-10T01:53:32;8;8;7
24012;PMS7003;12220;50.194;18.948;2023-05-10T01:55:56;10;8;7
24012;PMS7003;12220;50.194;18.948;2023-05-10T01:57:52;3;3;3
24012;PMS7003;12220;50.194;18.948;2023-05-10T02:00:13;7;7;7
24012;PMS7003;12220;50.194;18.948;2023-05-10T02:02:17;10;10;6
24012;PMS7003;12220;50.194;18.948;2023-05-10T02:04:21;9;9;8
24012;PMS7003;12220;50.194;18.948;2023-05-10T02:06:24;10;8;7
24012;PMS7003;12220;50.194;18.948;2023-05-10T02:08:27;12;7;5
24012;PMS7003;12220;50.194;18.948;2023-05-10T02:10:29;12;10;7
24012;PMS7003;12220;50.194;18.948;2023-05-10T02:12:32;10;8;7
24012;PMS7003;12220;50.194;18.948;2023-05-10T02:14:37;8;8;8
24012;PMS7003;12220;50.194;18.948;2023-05-10T02:16:42;13;9;8
24012;PMS7003;12220;50.194;18.948;2023-05-10T02:18:45;8;8;7
24012;PMS7003;12220;50.194;18.948;2023-05-10T02:20:49;9;9;8
24012;PMS7003;12220;50.194;18.948;2023-05-10T02:22:54;9;9;7
24012;PMS7003;12220;50.194;18.948;2023-05-10T02:24:58;10;10;8
24012;PMS7003;12220;50.194;18.948;2023-05-10T02:27:02;10;10;9
24012;PMS7003;12220;50.194;18.948;2023-05-10T02:29:04;14;11;6
24012;PMS7003;12220;50.194;18.948;2023-05-10T02:31:07;12;9;9
24012;PMS7003;12220;50.194;18.948;2023-05-10T02:33:13;12;10;8
24012;PMS7003;12220;50.194;18.948;2023-05-10T02:35:15;10;9;7
24012;PMS7003;12220;50.194;18.948;2023-05-10T02:37:20;9;9;7
24012;PMS7003;12220;50.194;18.948;2023-05-10T02:39:23;11;9;8
24012;PMS7003;12220;50.194;18.948;2023-05-10T02:41:28;8;8;7
24012;PMS7003;12220;50.194;18.948;2023-05-10T02:43:33;11;10;8
24012;PMS7003;12220;50.194;18.948;2023-05-10T02:45:36;7;7;6
24012;PMS7003;12220;50.194;18.948;2023-05-10T02:47:40;8;8;6
24012;PMS7003;12220;50.194;18.948;2023-05-10T02:49:43;8;8;7
24012;PMS7003;12220;50.194;18.948;2023-05-10T02:51:47;7;7;6
24012;PMS7003;12220;50.194;18.948;2023-05-10T02:53:53;10;8;7
24012;PMS7003;12220;50.194;18.948;2023-05-10T02:55:57;11;9;6
24012;PMS7003;12220;50.194;18.948;2023-05-10T02:58:01;8;8;6
24012;PMS7003;12220;50.194;18.948;2023-05-10T03:00:03;10;10;9
24012;PMS7003;12220;50.194;18.948;2023-05-10T03:02:05;9;9;8
24012;PMS7003;12220;50.194;18.948;2023-05-10T03:04:07;8;7;5
24012;PMS7003;12220;50.194;18.948;2023-05-10T03:06:13;7;7;6
24012;PMS7003;12220;50.194;18.948;2023-05-10T03:08:16;10;6;5
24012;PMS7003;12220;50.194;18.948;2023-05-10T03:10:18;12;6;6
24012;PMS7003;12220;50.194;18.948;2023-05-10T03:12:26;7;7;7
24012;PMS7003;12220;50.194;18.948;2023-05-10T03:16:56;7;7;7
24012;PMS7003;12220;50.194;18.948;2023-05-10T03:21:32;9;9;7
24012;PMS7003;12220;50.194;18.948;2023-05-10T03:25:51;11;9;6
24012;PMS7003;12220;50.194;18.948;2023-05-10T03:27:53;8;8;6
24012;PMS7003;12220;50.194;18.948;2023-05-10T03:29:57;13;8;7
24012;PMS7003;12220;50.194;18.948;2023-05-10T03:31:59;10;10;8
24012;PMS7003;12220;50.194;18.948;2023-05-10T03:34:00;9;9;8
24012;PMS7003;12220;50.194;18.948;2023-05-10T03:36:03;8;7;7
24012;PMS7003;12220;50.194;18.948;2023-05-10T03:38:11;10;10;8
24012;PMS7003;12220;50.194;18.948;2023-05-10T03:40:13;8;8;7
24012;PMS7003;12220;50.194;18.948;2023-05-10T03:42:15;13;12;8
24012;PMS7003;12220;50.194;18.948;2023-05-10T03:44:18;9;8;7
24012;PMS7003;12220;50.194;18.948;2023-05-10T03:46:26;10;9;8
24012;PMS7003;12220;50.194;18.948;2023-05-10T03:48:27;8;8;7
24012;PMS7003;12220;50.194;18.948;2023-05-10T03:50:29;16;11;8
24012;PMS7003;12220;50.194;18.948;2023-05-10T03:52:30;13;13;9
24012;PMS7003;12220;50.194;18.948;2023-05-10T03:54:41;8;8;7
24012;PMS7003;12220;50.194;18.948;2023-05-10T03:56:42;14;12;10
24012;PMS7003;12220;50.194;18.948;2023-05-10T03:58:44;13;13;10
24012;PMS7003;12220;50.194;18.948;2023-05-10T04:00:45;15;13;10
24012;PMS7003;12220;50.194;18.948;2023-05-10T04:02:56;11;11;8
24012;PMS7003;12220;50.194;18.948;2023-05-10T04:04:57;14;11;10
24012;PMS7003;12220;50.194;18.948;2023-05-10T04:06:59;13;13;9
24012;PMS7003;12220;50.194;18.948;2023-05-10T04:09:00;10;9;8
24012;PMS7003;12220;50.194;18.948;2023-05-10T04:11:11;9;9;7
24012;PMS7003;12220;50.194;18.948;2023-05-10T04:13:14;15;11;7
24012;PMS7003;12220;50.194;18.948;2023-05-10T04:15:16;14;10;8
24012;PMS7003;12220;50.194;18.948;2023-05-10T04:17:17;8;8;8
24012;PMS7003;12220;50.194;18.948;2023-05-10T04:19:30;13;11;9
24012;PMS7003;12220;50.194;18.948;2023-05-10T04:21:32;9;9;8
24012;PMS7003;12220;50.194;18.948;2023-05-10T04:23:33;12;11;9
24012;PMS7003;12220;50.194;18.948;2023-05-10T04:25:34;11;11;9
24012;PMS7003;12220;50.194;18.948;2023-05-10T04:27:41;12;10;8
24012;PMS7003;12220;50.194;18.948;2023-05-10T04:29:43;6;6;5
24012;PMS7003;12220;50.194;18.948;2023-05-10T04:31:44;11;11;8
24012;PMS7003;12220;50.194;18.948;2023-05-10T04:33:46;12;9;6
24012;PMS7003;12220;50.194;18.948;2023-05-10T04:35:56;15;12;10
24012;PMS7003;12220;50.194;18.948;2023-05-10T04:37:58;11;11;9
24012;PMS7003;12220;50.194;18.948;2023-05-10T04:40:00;10;10;7
24012;PMS7003;12220;50.194;18.948;2023-05-10T04:42:02;16;15;11
24012;PMS7003;12220;50.194;18.948;2023-05-10T04:44:11;20;13;11
24012;PMS7003;12220;50.194;18.948;2023-05-10T04:46:13;12;11;10
24012;PMS7003;12220;50.194;18.948;2023-05-10T04:48:14;12;12;9
24012;PMS7003;12220;50.194;18.948;2023-05-10T04:50:15;9;9;8
24012;PMS7003;12220;50.194;18.948;2023-05-10T04:52:26;12;11;8
24012;PMS7003;12220;50.194;18.948;2023-05-10T04:54:28;8;8;6
24012;PMS7003;12220;50.194;18.948;2023-05-10T04:56:29;9;9;6
24012;PMS7003;12220;50.194;18.948;2023-05-10T04:58:31;8;6;5
24012;PMS7003;12220;50.194;18.948;2023-05-10T05:00:42;11;11;9
24012;PMS7003;12220;50.194;18.948;2023-05-10T05:02:44;10;8;7
24012;PMS7003;12220;50.194;18.948;2023-05-10T05:04:46;14;13;6
24012;PMS7003;12220;50.194;18.948;2023-05-10T05:06:47;9;9;8
24012;PMS7003;12220;50.194;18.948;2023-05-10T05:08:57;12;8;7
24012;PMS7003;12220;50.194;18.948;2023-05-10T05:10:58;11;10;8
24012;PMS7003;12220;50.194;18.948;2023-05-10T05:13:00;9;9;7
24012;PMS7003;12220;50.194;18.948;2023-05-10T05:15:01;8;8;7
24012;PMS7003;12220;50.194;18.948;2023-05-10T05:17:12;11;10;8
24012;PMS7003;12220;50.194;18.948;2023-05-10T05:19:13;10;10;6
24012;PMS7003;12220;50.194;18.948;2023-05-10T05:21:16;9;8;7
24012;PMS7003;12220;50.194;18.948;2023-05-10T05:23:19;9;8;7
24012;PMS7003;12220;50.194;18.948;2023-05-10T05:25:27;8;8;6
24012;PMS7003;12220;50.194;18.948;2023-05-10T05:27:28;10;10;7
24012;PMS7003;12220;50.194;18.948;2023-05-10T05:29:30;6;6;6
24012;PMS7003;12220;50.194;18.948;2023-05-10T05:31:32;6;6;5
24012;PMS7003;12220;50.194;18.948;2023-05-10T05:33:42;12;12;9
24012;PMS7003;12220;50.194;18.948;2023-05-10T05:35:43;8;8;7
24012;PMS7003;12220;50.194;18.948;2023-05-10T05:37:53;9;6;6
24012;PMS7003;12220;50.194;18.948;2023-05-10T05:39:56;8;8;7
24012;PMS7003;12220;50.194;18.948;2023-05-10T05:41:58;10;10;8
24012;PMS7003;12220;50.194;18.948;2023-05-10T05:43:59;10;10;6
24012;PMS7003;12220;50.194;18.948;2023-05-10T05:46:01;8;8;6
24012;PMS7003;12220;50.194;18.948;2023-05-10T05:48:02;7;7;6
24012;PMS7003;12220;50.194;18.948;2023-05-10T05:50:12;9;9;8
24012;PMS7003;12220;50.194;18.948;2023-05-10T05:52:13;9;9;8
24012;PMS7003;12220;50.194;18.948;2023-05-10T05:54:15;9;8;7
24012;PMS7003;12220;50.194;18.948;2023-05-10T05:56:18;11;10;8
24012;PMS7003;12220;50.194;18.948;2023-05-10T05:58:27;9;7;7
24012;PMS7003;12220;50.194;18.948;2023-05-10T06:00:28;9;9;6
24012;PMS7003;12220;50.194;18.948;2023-05-10T06:02:30;7;7;6
24012;PMS7003;12220;50.194;18.948;2023-05-10T06:04:31;9;7;6
24012;PMS7003;12220;50.194;18.948;2023-05-10T06:06:42;5;5;4
24012;PMS7003;12220;50.194;18.948;2023-05-10T06:08:44;10;8;7
24012;PMS7003;12220;50.194;18.948;2023-05-10T06:10:45;10;8;8
24012;PMS7003;12220;50.194;18.948;2023-05-10T06:12:46;5;5;4
24012;PMS7003;12220;50.194;18.948;2023-05-10T06:14:57;8;8;7
24012;PMS7003;12220;50.194;18.948;2023-05-10T06:16:58;9;9;8
24012;PMS7003;12220;50.194;18.948;2023-05-10T06:19:00;5;3;3
24012;PMS7003;12220;50.194;18.948;2023-05-10T06:21:03;6;6;4
24012;PMS7003;12220;50.194;18.948;2023-05-10T06:23:12;8;8;6
24012;PMS7003;12220;50.194;18.948;2023-05-10T06:25:13;6;5;3
24012;PMS7003;12220;50.194;18.948;2023-05-10T06:27:15;7;7;7
24012;PMS7003;12220;50.194;18.948;2023-05-10T06:29:16;10;7;5
24012;PMS7003;12220;50.194;18.948;2023-05-10T06:31:27;8;8;7
24012;PMS7003;12220;50.194;18.948;2023-05-10T06:33:28;12;8;6
24012;PMS7003;12220;50.194;18.948;2023-05-10T06:35:30;12;7;6
24012;PMS7003;12220;50.194;18.948;2023-05-10T06:37:33;7;7;6
24012;PMS7003;12220;50.194;18.948;2023-05-10T06:39:42;8;8;7
24012;PMS7003;12220;50.194;18.948;2023-05-10T06:41:43;11;8;6
24012;PMS7003;12220;50.194;18.948;2023-05-10T06:43:44;7;7;5
24012;PMS7003;12220;50.194;18.948;2023-05-10T06:45:47;4;4;4
24012;PMS7003;12220;50.194;18.948;2023-05-10T06:47:57;5;5;5
24012;PMS7003;12220;50.194;18.948;2023-05-10T06:49:58;9;7;6
24012;PMS7003;12220;50.194;18.948;2023-05-10T06:52:00;7;6;6
24012;PMS7003;12220;50.194;18.948;2023-05-10T06:54:01;10;8;7
24012;PMS7003;12220;50.194;18.948;2023-05-10T06:56:12;5;5;4
24012;PMS7003;12220;50.194;18.948;2023-05-10T06:58:13;7;7;5
24012;PMS7003;12220;50.194;18.948;2023-05-10T07:00:14;5;5;4
24012;PMS7003;12220;50.194;18.948;2023-05-10T07:02:16;7;6;5
24012;PMS7003;12220;50.194;18.948;2023-05-10T07:04:26;8;6;5
24012;PMS7003;12220;50.194;18.948;2023-05-10T07:06:28;7;7;6
24012;PMS7003;12220;50.194;18.948;2023-05-10T07:08:33;8;8;6
24012;PMS7003;12220;50.194;18.948;2023-05-10T07:10:35;6;6;4
24012;PMS7003;12220;50.194;18.948;2023-05-10T07:12:41;6;6;6
24012;PMS7003;12220;50.194;18.948;2023-05-10T07:14:43;6;6;5
24012;PMS7003;12220;50.194;18.948;2023-05-10T07:16:45;8;7;6
24012;PMS7003;12220;50.194;18.948;2023-05-10T07:18:47;6;6;5
24012;PMS7003;12220;50.194;18.948;2023-05-10T07:20:57;3;3;1
24012;PMS7003;12220;50.194;18.948;2023-05-10T07:22:58;5;5;5
24012;PMS7003;12220;50.194;18.948;2023-05-10T07:25:00;8;5;2
24012;PMS7003;12220;50.194;18.948;2023-05-10T07:27:03;5;5;4
24012;PMS7003;12220;50.194;18.948;2023-05-10T07:29:11;5;5;4
24012;PMS7003;12220;50.194;18.948;2023-05-10T07:31:13;4;4;3
24012;PMS7003;12220;50.194;18.948;2023-05-10T07:33:14;4;4;3
24012;PMS7003;12220;50.194;18.948;2023-05-10T07:35:16;3;3;3
24012;PMS7003;12220;50.194;18.948;2023-05-10T07:37:26;4;3;3
24012;PMS7003;12220;50.194;18.948;2023-05-10T07:39:28;4;4;4
24012;PMS7003;12220;50.194;18.948;2023-05-10T07:41:32;6;6;5
24012;PMS7003;12220;50.194;18.948;2023-05-10T07:43:33;4;4;4
24012;PMS7003;12220;50.194;18.948;2023-05-10T07:45:41;4;4;3
24012;PMS7003;12220;50.194;18.948;2023-05-10T07:47:42;4;4;3
24012;PMS7003;12220;50.194;18.948;2023-05-10T07:49:44;7;5;5
24012;PMS7003;12220;50.194;18.948;2023-05-10T07:51:57;4;4;4
24012;PMS7003;12220;50.194;18.948;2023-05-10T07:53:59;4;4;3
24012;PMS7003;12220;50.194;18.948;2023-05-10T07:56:19;5;5;4
24012;PMS7003;12220;50.194;18.948;2023-05-10T07:58:12;4;4;4
24012;PMS7003;12220;50.194;18.948;2023-05-10T08:00:16;3;3;3
24012;PMS7003;12220;50.194;18.948;2023-05-10T08:02:19;5;5;4
24012;PMS7003;12220;50.194;18.948;2023-05-10T08:04:23;4;4;3
24012;PMS7003;12220;50.194;18.948;2023-05-10T08:06:24;4;4;4
24012;PMS7003;12220;50.194;18.948;2023-05-10T08:08:28;4;3;2
24012;PMS7003;12220;50.194;18.948;2023-05-10T08:10:32;2;2;2
24012;PMS7003;12220;50.194;18.948;2023-05-10T08:12:34;4;3;2
24012;PMS7003;12220;50.194;18.948;2023-05-10T08:14:35;4;4;3
24012;PMS7003;12220;50.194;18.948;2023-05-10T08:16:37;3;3;3
24012;PMS7003;12220;50.194;18.948;2023-05-10T08:18:47;4;4;3
24012;PMS7003;12220;50.194;18.948;2023-05-10T08:20:51;3;3;3
24012;PMS7003;12220;50.194;18.948;2023-05-10T08:22:52;1;1;0
24012;PMS7003;12220;50.194;18.948;2023-05-10T08:24:53;4;4;4
24012;PMS7003;12220;50.194;18.948;2023-05-10T08:27:02;5;5;5
24012;PMS7003;12220;50.194;18.948;2023-05-10T08:29:03;3;3;3
24012;PMS7003;12220;50.194;18.948;2023-05-10T08:31:05;3;3;2
24012;PMS7003;12220;50.194;18.948;2023-05-10T08:33:06;4;4;3
24012;PMS7003;12220;50.194;18.948;2023-05-10T08:35:17;3;3;3
24012;PMS7003;12220;50.194;18.948;2023-05-10T08:37:18;4;4;2
24012;PMS7003;12220;50.194;18.948;2023-05-10T08:39:20;2;2;2
24012;PMS7003;12220;50.194;18.948;2023-05-10T08:41:25;4;3;2
24012;PMS7003;12220;50.194;18.948;2023-05-10T08:43:32;2;2;2
24012;PMS7003;12220;50.194;18.948;2023-05-10T08:45:40;2;2;2
24012;PMS7003;12220;50.194;18.948;2023-05-10T08:47:44;1;1;1
24012;PMS7003;12220;50.194;18.948;2023-05-10T08:49:47;4;4;3
24012;PMS7003;12220;50.194;18.948;2023-05-10T08:51:52;2;2;2
24012;PMS7003;12220;50.194;18.948;2023-05-10T08:53:56;3;3;2
24012;PMS7003;12220;50.194;18.948;2023-05-10T08:55:58;3;3;2
24012;PMS7003;12220;50.194;18.948;2023-05-10T08:57:59;3;3;2
24012;PMS7003;12220;50.194;18.948;2023-05-10T09:00:03;3;3;2
24012;PMS7003;12220;50.194;18.948;2023-05-10T09:02:06;3;3;2
24012;PMS7003;12220;50.194;18.948;2023-05-10T09:04:12;2;2;2
24012;PMS7003;12220;50.194;18.948;2023-05-10T09:06:14;6;4;3
24012;PMS7003;12220;50.194;18.948;2023-05-10T09:08:18;3;3;2
24012;PMS7003;12220;50.194;18.948;2023-05-10T09:10:21;4;4;3
24012;PMS7003;12220;50.194;18.948;2023-05-10T09:12:26;2;2;2
24012;PMS7003;12220;50.194;18.948;2023-05-10T09:14:30;3;3;3
24012;PMS7003;12220;50.194;18.948;2023-05-10T09:16:35;3;3;3
24012;PMS7003;12220;50.194;18.948;2023-05-10T09:18:36;4;4;4
24012;PMS7003;12220;50.194;18.948;2023-05-10T09:20:38;2;2;2
24012;PMS7003;12220;50.194;18.948;2023-05-10T09:22:39;2;2;2
24012;PMS7003;12220;50.194;18.948;2023-05-10T09:24:48;4;4;4
24012;PMS7003;12220;50.194;18.948;2023-05-10T09:26:54;2;2;2
24012;PMS7003;12220;50.194;18.948;2023-05-10T09:28:59;1;1;1
24012;PMS7003;12220;50.194;18.948;2023-05-10T09:31:01;3;2;2
24012;PMS7003;12220;50.194;18.948;2023-05-10T09:33:03;2;2;2
24012;PMS7003;12220;50.194;18.948;2023-05-10T09:35:06;3;3;3
24012;PMS7003;12220;50.194;18.948;2023-05-10T09:37:09;2;2;2
24012;PMS7003;12220;50.194;18.948;2023-05-10T09:39:11;2;2;2
24012;PMS7003;12220;50.194;18.948;2023-05-10T09:41:19;4;4;4
24012;PMS7003;12220;50.194;18.948;2023-05-10T09:43:23;3;3;1
24012;PMS7003;12220;50.194;18.948;2023-05-10T09:45:29;2;2;2
24012;PMS7003;12220;50.194;18.948;2023-05-10T09:47:34;3;3;3
24012;PMS7003;12220;50.194;18.948;2023-05-10T09:49:37;3;3;3
24012;PMS7003;12220;50.194;18.948;2023-05-10T09:51:38;4;4;3
24012;PMS7003;12220;50.194;18.948;2023-05-10T09:53:40;3;3;3
24012;PMS7003;12220;50.194;18.948;2023-05-10T09:55:42;4;3;3
24012;PMS7003;12220;50.194;18.948;2023-05-10T10:00:09;5;5;4
24012;PMS7003;12220;50.194;18.948;2023-05-10T10:02:11;8;4;3
24012;PMS7003;12220;50.194;18.948;2023-05-10T10:04:13;4;4;4
24012;PMS7003;12220;50.194;18.948;2023-05-10T10:06:18;3;3;3
24012;PMS7003;12220;50.194;18.948;2023-05-10T10:08:24;5;5;3
24012;PMS7003;12220;50.194;18.948;2023-05-10T10:10:27;6;5;5
24012;PMS7003;12220;50.194;18.948;2023-05-10T10:12:29;2;2;2
24012;PMS7003;12220;50.194;18.948;2023-05-10T10:14:31;3;3;3
24012;PMS7003;12220;50.194;18.948;2023-05-10T10:16:39;3;3;3
24012;PMS7003;12220;50.194;18.948;2023-05-10T10:18:40;4;4;4
24012;PMS7003;12220;50.194;18.948;2023-05-10T10:20:43;4;4;3
24012;PMS7003;12220;50.194;18.948;2023-05-10T10:22:44;2;2;2
24012;PMS7003;12220;50.194;18.948;2023-05-10T10:24:53;4;4;2
24012;PMS7003;12220;50.194;18.948;2023-05-10T10:26:57;3;3;3
24012;PMS7003;12220;50.194;18.948;2023-05-10T10:29:11;5;5;4
24012;PMS7003;12220;50.194;18.948;2023-05-10T10:31:23;4;4;4
24012;PMS7003;12220;50.194;18.948;2023-05-10T10:35:42;4;4;3
24012;PMS7003;12220;50.194;18.948;2023-05-10T10:37:53;3;3;2
24012;PMS7003;12220;50.194;18.948;2023-05-10T10:39:54;1;1;1
24012;PMS7003;12220;50.194;18.948;2023-05-10T10:41:57;3;3;2
24012;PMS7003;12220;50.194;18.948;2023-05-10T10:46:21;4;4;3
24012;PMS7003;12220;50.194;18.948;2023-05-10T10:48:29;3;3;2
24012;PMS7003;12220;50.194;18.948;2023-05-10T10:50:31;4;3;3
24012;PMS7003;12220;50.194;18.948;2023-05-10T10:52:44;2;2;1
24012;PMS7003;12220;50.194;18.948;2023-05-10T10:54:51;4;4;3
24012;PMS7003;12220;50.194;18.948;2023-05-10T10:59:10;2;2;2
24012;PMS7003;12220;50.194;18.948;2023-05-10T11:01:12;2;2;2
24012;PMS7003;12220;50.194;18.948;2023-05-10T11:03:15;2;2;2
24012;PMS7003;12220;50.194;18.948;2023-05-10T11:07:50;4;4;3
24012;PMS7003;12220;50.194;18.948;2023-05-10T11:09:49;3;3;3
24012;PMS7003;12220;50.194;18.948;2023-05-10T11:11:52;2;2;1
24012;PMS7003;12220;50.194;18.948;2023-05-10T11:13:55;2;2;2
24012;PMS7003;12220;50.194;18.948;2023-05-10T11:20:38;1;1;1
24012;PMS7003;12220;50.194;18.948;2023-05-10T11:27:01;3;3;1
24012;PMS7003;12220;50.194;18.948;2023-05-10T11:29:03;2;2;2
24012;PMS7003;12220;50.194;18.948;2023-05-10T11:31:06;2;2;2
24012;PMS7003;12220;50.194;18.948;2023-05-10T11:33:08;2;2;2
24012;PMS7003;12220;50.194;18.948;2023-05-10T11:35:10;3;3;3
24012;PMS7003;12220;50.194;18.948;2023-05-10T11:37:12;2;2;2
24012;PMS7003;12220;50.194;18.948;2023-05-10T11:39:21;2;2;1
24012;PMS7003;12220;50.194;18.948;2023-05-10T11:41:27;3;3;2
24012;PMS7003;12220;50.194;18.948;2023-05-10T11:43:30;2;2;2
24012;PMS7003;12220;50.194;18.948;2023-05-10T11:45:32;3;3;3
24012;PMS7003;12220;50.194;18.948;2023-05-10T11:47:35;4;4;4
24012;PMS7003;12220;50.194;18.948;2023-05-10T11:49:37;5;5;3
24012;PMS7003;12220;50.194;18.948;2023-05-10T11:51:39;4;4;4
24012;PMS7003;12220;50.194;18.948;2023-05-10T11:53:43;3;3;3
24012;PMS7003;12220;50.194;18.948;2023-05-10T11:55:50;2;2;2
24012;PMS7003;12220;50.194;18.948;2023-05-10T11:57:52;3;3;3
24012;PMS7003;12220;50.194;18.948;2023-05-10T11:59:54;2;2;2
24012;PMS7003;12220;50.194;18.948;2023-05-10T12:01:57;3;2;1
24012;PMS7003;12220;50.194;18.948;2023-05-10T12:04:05;4;4;4
24012;PMS7003;12220;50.194;18.948;2023-05-10T12:06:09;4;3;3
24012;PMS7003;12220;50.194;18.948;2023-05-10T12:08:11;3;3;3
24012;PMS7003;12220;50.194;18.948;2023-05-10T12:10:17;3;3;3
24012;PMS7003;12220;50.194;18.948;2023-05-10T12:12:23;3;3;3
24012;PMS7003;12220;50.194;18.948;2023-05-10T12:14:27;5;3;2
24012;PMS7003;12220;50.194;18.948;2023-05-10T12:16:33;3;3;2
24012;PMS7003;12220;50.194;18.948;2023-05-10T12:18:34;4;4;4
24012;PMS7003;12220;50.194;18.948;2023-05-10T12:20:40;3;3;3
24012;PMS7003;12220;50.194;18.948;2023-05-10T12:22:46;4;4;4
24012;PMS7003;12220;50.194;18.948;2023-05-10T12:24:53;2;2;2
24012;PMS7003;12220;50.194;18.948;2023-05-10T12:26:55;4;4;4
24012;PMS7003;12220;50.194;18.948;2023-05-10T12:31:19;3;3;3
24012;PMS7003;12220;50.194;18.948;2023-05-10T12:33:23;2;2;1
24012;PMS7003;12220;50.194;18.948;2023-05-10T12:35:24;4;4;3
24012;PMS7003;12220;50.194;18.948;2023-05-10T12:37:27;3;2;2
24012;PMS7003;12220;50.194;18.948;2023-05-10T12:39:40;2;2;2
24012;PMS7003;12220;50.194;18.948;2023-05-10T12:41:43;3;3;3
24012;PMS7003;12220;50.194;18.948;2023-05-10T12:43:44;2;2;2
24012;PMS7003;12220;50.194;18.948;2023-05-10T12:45:47;5;5;4
24012;PMS7003;12220;50.194;18.948;2023-05-10T12:47:49;3;3;3
24012;PMS7003;12220;50.194;18.948;2023-05-10T12:49:51;2;2;2
24012;PMS7003;12220;50.194;18.948;2023-05-10T12:51:52;3;3;3
24012;PMS7003;12220;50.194;18.948;2023-05-10T12:53:53;4;4;3
24012;PMS7003;12220;50.194;18.948;2023-05-10T12:56:04;3;3;3
24012;PMS7003;12220;50.194;18.948;2023-05-10T12:58:06;4;4;4
24012;PMS7003;12220;50.194;18.948;2023-05-10T13:00:08;3;3;2
24012;PMS7003;12220;50.194;18.948;2023-05-10T13:02:10;4;4;4
24012;PMS7003;12220;50.194;18.948;2023-05-10T13:04:18;3;3;3
24012;PMS7003;12220;50.194;18.948;2023-05-10T13:06:20;3;2;2
24012;PMS7003;12220;50.194;18.948;2023-05-10T13:08:21;2;2;2
24012;PMS7003;12220;50.194;18.948;2023-05-10T13:10:23;2;2;1
24012;PMS7003;12220;50.194;18.948;2023-05-10T13:12:33;3;3;3
24012;PMS7003;12220;50.194;18.948;2023-05-10T13:14:35;2;2;2
24012;PMS7003;12220;50.194;18.948;2023-05-10T13:16:36;2;2;2
24012;PMS7003;12220;50.194;18.948;2023-05-10T13:18:37;1;1;1
24012;PMS7003;12220;50.194;18.948;2023-05-10T13:20:48;3;3;3
24012;PMS7003;12220;50.194;18.948;2023-05-10T13:22:50;4;4;4
24012;PMS7003;12220;50.194;18.948;2023-05-10T13:24:51;2;2;2
24012;PMS7003;12220;50.194;18.948;2023-05-10T13:26:53;3;3;2
24012;PMS7003;12220;50.194;18.948;2023-05-10T13:29:03;4;3;3
24012;PMS7003;12220;50.194;18.948;2023-05-10T13:31:04;4;4;3
24012;PMS7003;12220;50.194;18.948;2023-05-10T13:33:06;3;3;3
24012;PMS7003;12220;50.194;18.948;2023-05-10T13:35:07;3;3;3
24012;PMS7003;12220;50.194;18.948;2023-05-10T13:37:18;3;2;2
24012;PMS7003;12220;50.194;18.948;2023-05-10T13:39:20;4;4;3
24012;PMS7003;12220;50.194;18.948;2023-05-10T13:41:21;2;2;1
24012;PMS7003;12220;50.194;18.948;2023-05-10T13:43:23;2;2;2
24012;PMS7003;12220;50.194;18.948;2023-05-10T13:45:32;3;2;2
24012;PMS7003;12220;50.194;18.948;2023-05-10T13:47:34;5;3;3
24012;PMS7003;12220;50.194;18.948;2023-05-10T13:49:35;4;4;3
24012;PMS7003;12220;50.194;18.948;2023-05-10T13:51:37;2;2;2
24012;PMS7003;12220;50.194;18.948;2023-05-10T13:53:47;2;2;2
24012;PMS7003;12220;50.194;18.948;2023-05-10T13:55:49;3;2;2
24012;PMS7003;12220;50.194;18.948;2023-05-10T13:57:50;2;2;2
24012;PMS7003;12220;50.194;18.948;2023-05-10T13:59:52;3;3;3
24012;PMS7003;12220;50.194;18.948;2023-05-10T14:02:02;4;4;3
24012;PMS7003;12220;50.194;18.948;2023-05-10T14:04:04;2;2;2
24012;PMS7003;12220;50.194;18.948;2023-05-10T14:06:07;3;2;2
24012;PMS7003;12220;50.194;18.948;2023-05-10T14:08:09;4;2;2
24012;PMS7003;12220;50.194;18.948;2023-05-10T14:10:17;3;3;3
24012;PMS7003;12220;50.194;18.948;2023-05-10T14:12:18;5;4;4
24012;PMS7003;12220;50.194;18.948;2023-05-10T14:14:19;2;2;2
24012;PMS7003;12220;50.194;18.948;2023-05-10T14:16:21;2;2;2
24012;PMS7003;12220;50.194;18.948;2023-05-10T14:18:31;1;1;1
24012;PMS7003;12220;50.194;18.948;2023-05-10T14:20:33;2;2;2
24012;PMS7003;12220;50.194;18.948;2023-05-10T14:22:34;2;2;1
24012;PMS7003;12220;50.194;18.948;2023-05-10T14:24:36;3;3;3
24012;PMS7003;12220;50.194;18.948;2023-05-10T14:26:46;3;3;3
24012;PMS7003;12220;50.194;18.948;2023-05-10T14:28:48;2;2;2
24012;PMS7003;12220;50.194;18.948;2023-05-10T14:30:49;2;2;2